Time;durP1;ratioP1;P1;durP2;ratioP2;P2;SDS_P1;SDS_P2;PMS_P1;PMS_P2;Temp;Humidity;BMP_temperature;BMP_pressure;BME280_temperature;BME280_humidity;BME280_pressure;Samples;Min_cycle;Max_cycle;Signal;HPM_P1;HPM_P2
2024/01/03 00:00:28;;;;;;;9.75;2.65;;;;;;;10.60;100.00;98669.41;5069308;28;20063;-36
2024/01/03 00:02:55;;;;;;;8.90;2.17;;;;;;;10.70;100.00;98693.63;5069947;28;20356;-36
2024/01/03 00:05:34;;;;;;;6.40;2.15;;;;;;;10.67;100.00;98698.78;5070062;28;20374;-36
2024/01/03 00:07:59;;;;;;;7.90;2.25;;;;;;;10.58;100.00;98685.09;5058765;28;20377;-36
2024/01/03 00:10:49;;;;;;;7.47;2.57;;;;;;;10.67;100.00;98706.91;5056339;28;20029;-36
2024/01/03 00:13:33;;;;;;;8.07;2.50;;;;;;;10.67;100.00;98718.53;5056539;28;20346;-35
2024/01/03 00:16:07;;;;;;;7.30;1.90;;;;;;;10.67;100.00;98725.81;5056176;28;20373;-35
2024/01/03 00:18:37;;;;;;;7.00;2.65;;;;;;;10.63;100.00;98709.38;5056148;28;20043;-36
2024/01/03 00:21:08;;;;;;;7.78;1.73;;;;;;;10.66;100.00;98716.13;5056732;28;20029;-36
2024/01/03 00:23:49;;;;;;;7.57;2.00;;;;;;;10.67;100.00;98739.34;5056456;28;20067;-35
2024/01/03 00:26:14;;;;;;;8.98;2.30;;;;;;;10.69;100.00;98723.66;5056258;28;20559;-35
2024/01/03 00:28:40;;;;;;;7.30;1.92;;;;;;;10.70;100.00;98722.56;5056791;28;20025;-36
2024/01/03 00:31:06;;;;;;;;;;;;;;;10.74;100.00;98748.75;5056707;28;20434;-35
2024/01/03 00:33:38;;;;;;;8.75;2.20;;;;;;;10.64;100.00;98723.69;5056175;28;19940;-36
2024/01/03 00:36:06;;;;;;;7.43;1.73;;;;;;;10.62;100.00;98728.56;5055826;28;20025;-35
2024/01/03 00:38:37;;;;;;;8.02;2.40;;;;;;;10.60;100.00;98722.66;5055746;28;20484;-36
2024/01/03 00:41:03;;;;;;;12.35;2.85;;;;;;;10.57;100.00;98724.81;5056039;28;20036;-35
2024/01/03 00:43:28;;;;;;;;;;;;;;;10.66;100.00;98737.72;5055801;28;20066;-35
2024/01/03 00:45:54;;;;;;;8.68;2.40;;;;;;;10.62;100.00;98750.19;5055729;28;20302;-36
2024/01/03 00:48:19;;;;;;;12.53;2.83;;;;;;;10.61;100.00;98762.09;5056122;28;20018;-35
2024/01/03 00:50:45;;;;;;;11.37;2.73;;;;;;;10.50;100.00;98761.38;5055613;28;20596;-35
2024/01/03 00:53:12;;;;;;;11.07;2.88;;;;;;;10.46;100.00;98747.59;5055734;28;20063;-35
2024/01/03 00:55:39;;;;;;;17.58;3.35;;;;;;;10.42;100.00;98741.16;5055774;28;20037;-36
2024/01/03 00:58:04;;;;;;;12.85;3.17;;;;;;;10.48;100.00;98763.53;5055386;28;20029;-35
2024/01/03 01:00:30;;;;;;;12.98;3.00;;;;;;;10.47;100.00;98772.72;5055185;28;20017;-36
2024/01/03 01:02:55;;;;;;;14.65;4.18;;;;;;;10.41;100.00;98766.56;5055901;28;20021;-35
2024/01/03 01:05:21;;;;;;;17.00;3.80;;;;;;;10.44;100.00;98781.38;5055867;28;20025;-36
2024/01/03 01:07:46;;;;;;;12.13;3.20;;;;;;;10.39;100.00;98755.22;5055261;28;20100;-35
2024/01/03 01:10:11;;;;;;;11.13;3.00;;;;;;;10.44;100.00;98773.28;5054972;28;20445;-36
2024/01/03 01:12:37;;;;;;;15.90;3.87;;;;;;;10.43;100.00;98790.59;5055775;28;20025;-36
2024/01/03 01:15:03;;;;;;;10.23;3.05;;;;;;;10.41;100.00;98790.06;5055268;28;20275;-35
2024/01/03 01:17:28;;;;;;;10.75;4.13;;;;;;;10.34;100.00;98782.25;5055070;28;20357;-36
2024/01/03 01:19:53;;;;;;;13.10;3.60;;;;;;;10.38;100.00;98780.63;5054005;28;20108;-35
2024/01/03 01:22:19;;;;;;;13.53;3.00;;;;;;;10.41;100.00;98798.19;5055016;28;20112;-36
2024/01/03 01:24:44;;;;;;;13.70;3.17;;;;;;;10.43;100.00;98793.28;5055701;28;20068;-36
2024/01/03 01:27:10;;;;;;;14.90;3.97;;;;;;;10.37;100.00;98784.41;5054955;28;20021;-36
2024/01/03 01:29:35;;;;;;;15.53;3.83;;;;;;;10.28;100.00;98772.56;5054779;28;20476;-35
2024/01/03 01:32:00;;;;;;;14.20;3.50;;;;;;;10.43;100.00;98807.59;5054917;28;20362;-36
2024/01/03 01:34:26;;;;;;;16.73;3.55;;;;;;;10.44;100.00;98811.09;5055015;28;20028;-36
2024/01/03 01:36:51;;;;;;;15.93;4.32;;;;;;;10.43;100.00;98821.13;5054901;28;20357;-35
2024/01/03 01:39:17;;;;;;;13.15;3.50;;;;;;;10.43;100.00;98826.53;5055152;28;20057;-36
2024/01/03 01:41:42;;;;;;;15.13;4.13;;;;;;;10.35;100.00;98815.50;5055103;28;20540;-36
2024/01/03 01:44:08;;;;;;;13.23;3.17;;;;;;;10.40;100.00;98824.41;5054281;28;20028;-35
2024/01/03 01:46:36;;;;;;;14.40;3.80;;;;;;;10.39;100.00;98833.56;5054771;28;20029;-35
2024/01/03 01:49:02;;;;;;;14.98;3.70;;;;;;;10.38;100.00;98828.44;5054406;28;20271;-35
2024/01/03 01:51:27;;;;;;;19.80;3.95;;;;;;;10.38;100.00;98834.66;5054982;28;20021;-35
2024/01/03 01:53:53;;;;;;;12.60;3.40;;;;;;;10.38;100.00;98829.25;5054327;28;20028;-36
2024/01/03 01:56:20;;;;;;;16.30;4.30;;;;;;;10.33;100.00;98823.88;5054651;28;20041;-35
2024/01/03 01:58:48;;;;;;;17.05;4.65;;;;;;;10.24;100.00;98801.22;5054708;28;20267;-35
2024/01/03 02:01:14;;;;;;;14.93;3.53;;;;;;;10.40;100.00;98840.59;5054475;28;20035;-35
2024/01/03 02:03:40;;;;;;;;;;;;;;;10.43;100.00;98850.03;5055148;28;20356;-35
2024/01/03 02:06:08;;;;;;;13.55;3.88;;;;;;;10.38;100.00;98844.66;5053931;28;19905;-35
2024/01/03 02:08:34;;;;;;;19.35;4.78;;;;;;;10.45;100.00;98853.28;5053807;28;20028;-35
2024/01/03 02:11:01;;;;;;;15.57;3.42;;;;;;;10.44;100.00;98849.78;5053770;28;20033;-36
2024/01/03 02:13:26;;;;;;;17.70;3.88;;;;;;;10.47;100.00;98860.00;5054015;28;20025;-36
2024/01/03 02:15:52;;;;;;;11.13;3.00;;;;;;;10.47;100.00;98870.81;5054232;28;20071;-35
2024/01/03 02:18:18;;;;;;;;;;;;;;;10.47;100.00;98865.41;5054088;28;20048;-35
2024/01/03 02:20:45;;;;;;;14.05;3.95;;;;;;;10.44;100.00;98871.38;5054690;28;20333;-36
2024/01/03 02:23:11;;;;;;;12.85;3.20;;;;;;;10.34;100.00;98849.78;5053590;28;20040;-36
2024/01/03 02:25:36;;;;;;;20.70;4.73;;;;;;;10.47;100.00;98873.53;5053580;28;20064;-36
2024/01/03 02:28:01;;;;;;;17.10;4.33;;;;;;;10.37;100.00;98851.97;5053797;28;20024;-35
2024/01/03 02:30:27;;;;;;;15.73;3.87;;;;;;;10.47;100.00;98865.41;5054343;28;20028;-35
2024/01/03 02:32:52;;;;;;;14.60;3.73;;;;;;;10.45;100.00;98867.59;5054370;28;20553;-35
2024/01/03 02:35:17;;;;;;;11.87;3.30;;;;;;;10.44;100.00;98866.00;5053607;28;20025;-35
2024/01/03 02:37:43;;;;;;;13.63;3.92;;;;;;;10.45;100.00;98883.00;5053935;28;20025;-36
2024/01/03 02:40:08;;;;;;;14.40;3.92;;;;;;;10.44;100.00;98870.56;5053818;28;20353;-35
2024/01/03 02:42:34;;;;;;;15.13;3.75;;;;;;;10.41;100.00;98881.94;5053817;28;20361;-35
2024/01/03 02:44:59;;;;;;;15.97;3.73;;;;;;;10.41;100.00;98871.94;5053281;28;20545;-36
2024/01/03 02:47:24;;;;;;;13.40;3.13;;;;;;;10.39;100.00;98886.78;5053792;28;20397;-35
2024/01/03 02:49:50;;;;;;;15.60;3.90;;;;;;;10.31;100.00;98855.78;5053106;28;20355;-35
2024/01/03 02:52:15;;;;;;;12.33;3.80;;;;;;;10.35;100.00;98867.66;5054004;28;20040;-36
2024/01/03 02:54:40;;;;;;;14.33;3.73;;;;;;;10.36;100.00;98877.38;5052853;28;20743;-35
2024/01/03 02:57:06;;;;;;;13.23;3.40;;;;;;;10.33;100.00;98896.81;5053153;28;20287;-36
2024/01/03 02:59:33;;;;;;;17.17;3.87;;;;;;;10.26;100.00;98874.72;5053508;28;20063;-35
2024/01/03 03:01:58;;;;;;;14.07;3.35;;;;;;;10.24;100.00;98871.47;5053911;28;20267;-36
2024/01/03 03:04:24;;;;;;;14.70;3.93;;;;;;;10.28;100.00;98877.94;5053064;28;20021;-36
2024/01/03 03:06:49;;;;;;;15.53;4.70;;;;;;;10.21;100.00;98866.59;5053090;28;20033;-35
2024/01/03 03:09:14;;;;;;;18.07;4.63;;;;;;;10.24;100.00;98887.66;5053587;28;20158;-35
2024/01/03 03:11:40;;;;;;;15.20;3.90;;;;;;;10.12;100.00;98868.25;5053338;28;20017;-35
2024/01/03 03:14:05;;;;;;;12.73;3.57;;;;;;;10.18;100.00;98886.84;5053800;28;20021;-35
2024/01/03 03:16:30;;;;;;;14.70;3.47;;;;;;;10.16;100.00;98877.41;5053178;28;20758;-36
2024/01/03 03:18:56;;;;;;;17.87;4.67;;;;;;;10.14;100.00;98887.69;5052931;28;20268;-35
2024/01/03 03:21:21;;;;;;;18.03;3.63;;;;;;;10.11;100.00;98882.84;5053318;28;20028;-36
2024/01/03 03:23:46;;;;;;;13.43;3.63;;;;;;;10.09;100.00;98880.41;5053216;28;20064;-35
2024/01/03 03:26:12;;;;;;;14.73;3.87;;;;;;;10.08;100.00;98889.59;5053753;28;20444;-35
2024/01/03 03:28:37;;;;;;;17.87;4.17;;;;;;;10.04;100.00;98883.91;5053375;28;20295;-36
2024/01/03 03:31:03;;;;;;;11.33;3.57;;;;;;;9.99;100.00;98886.63;5053485;28;20417;-36
2024/01/03 03:33:30;;;;;;;16.67;4.30;;;;;;;9.92;100.00;98869.94;5053063;28;20032;-36
2024/01/03 03:35:55;;;;;;;16.88;4.22;;;;;;;10.05;100.00;98896.38;5053486;28;20028;-35
2024/01/03 03:38:21;;;;;;;12.63;3.97;;;;;;;10.07;100.00;98894.19;5053587;28;20017;-35
2024/01/03 03:40:46;;;;;;;17.60;4.40;;;;;;;9.99;100.00;98873.13;5052879;28;20039;-36
2024/01/03 03:43:11;;;;;;;18.57;4.90;;;;;;;10.07;100.00;98901.47;5055691;28;20039;-35
2024/01/03 03:45:37;;;;;;;19.37;4.43;;;;;;;10.04;100.00;98889.31;5057361;28;20325;-35
2024/01/03 03:48:03;;;;;;;19.80;4.50;;;;;;;9.94;100.00;98877.75;5056985;28;20369;-36
2024/01/03 03:50:28;;;;;;;17.52;4.47;;;;;;;9.95;100.00;98899.06;5056412;28;20264;-35
2024/01/03 03:52:54;;;;;;;16.93;4.17;;;;;;;9.80;100.00;98891.00;5056758;28;20029;-36
2024/01/03 03:55:19;;;;;;;19.93;4.50;;;;;;;9.77;100.00;98911.28;5056596;28;20074;-35
2024/01/03 03:57:44;;;;;;;16.60;4.00;;;;;;;9.65;100.00;98910.72;5056687;28;20066;-35
2024/01/03 04:00:10;;;;;;;18.60;4.20;;;;;;;9.55;100.00;98914.25;5056531;28;20070;-36
2024/01/03 04:02:36;;;;;;;15.73;3.85;;;;;;;9.47;100.00;98911.31;5057036;28;20067;-35
2024/01/03 04:05:01;;;;;;;13.70;4.07;;;;;;;9.41;100.00;98918.56;5056703;28;20396;-35
2024/01/03 04:07:31;;;;;;;20.73;4.53;;;;;;;9.24;100.00;98880.28;5056396;28;20028;-35
2024/01/03 04:09:56;;;;;;;15.18;3.70;;;;;;;9.28;100.00;98906.44;5056007;28;20336;-35
2024/01/03 04:12:21;;;;;;;12.10;4.07;;;;;;;9.16;100.00;98905.88;5056645;28;20060;-36
2024/01/03 04:14:47;;;;;;;21.27;4.97;;;;;;;9.13;100.00;98928.00;5055888;28;20036;-35
2024/01/03 04:17:12;;;;;;;19.57;4.30;;;;;;;9.03;100.00;98901.03;5056588;28;20028;-35
2024/01/03 04:19:38;;;;;;;18.60;4.77;;;;;;;8.99;100.00;98900.75;5055932;28;20484;-35
2024/01/03 04:22:04;;;;;;;19.55;4.60;;;;;;;9.01;100.00;98913.97;5056193;28;20455;-35
2024/01/03 04:24:29;;;;;;;;;;;;;;;9.03;100.00;98914.53;5056592;28;20036;-35
2024/01/03 04:26:55;;;;;;;12.83;3.17;;;;;;;9.01;100.00;98916.66;5056137;28;19905;-35
2024/01/03 04:29:20;;;;;;;13.13;3.40;;;;;;;9.03;100.00;98911.84;5055899;28;20272;-35
2024/01/03 04:31:46;;;;;;;15.27;3.50;;;;;;;9.05;100.00;98920.44;5056259;28;20298;-35
2024/01/03 04:34:11;;;;;;;13.75;4.03;;;;;;;9.08;100.00;98909.13;5055988;28;20207;-36
2024/01/03 04:36:37;;;;;;;14.32;3.42;;;;;;;9.12;100.00;98922.88;5055793;28;20060;-35
2024/01/03 04:39:02;;;;;;;13.67;3.03;;;;;;;9.15;100.00;98914.25;5055505;28;20035;-35
2024/01/03 04:41:28;;;;;;;20.15;4.05;;;;;;;9.10;100.00;98912.38;5056392;28;20024;-35
2024/01/03 04:43:53;;;;;;;14.00;3.28;;;;;;;9.17;100.00;98920.19;5055999;28;20103;-35
2024/01/03 04:46:18;;;;;;;14.73;3.00;;;;;;;9.16;100.00;98919.38;5055832;28;20033;-36
2024/01/03 04:48:44;;;;;;;14.60;2.97;;;;;;;9.16;100.00;98915.88;5055454;28;20475;-35
2024/01/03 04:51:09;;;;;;;14.75;3.63;;;;;;;9.17;100.00;98923.69;5056211;28;20021;-35
2024/01/03 04:53:35;;;;;;;12.25;3.13;;;;;;;9.12;100.00;98909.38;5055145;28;20155;-35
2024/01/03 04:56:00;;;;;;;14.30;3.07;;;;;;;9.19;100.00;98929.63;5055982;28;20461;-35
2024/01/03 04:58:25;;;;;;;10.83;2.70;;;;;;;9.20;100.00;98927.75;5055191;28;20051;-35
2024/01/03 05:00:51;;;;;;;9.50;2.40;;;;;;;9.17;100.00;98920.19;5056087;28;20032;-35
2024/01/03 05:03:16;;;;;;;8.17;2.70;;;;;;;9.17;100.00;98918.28;5055340;28;20053;-35
2024/01/03 05:05:42;;;;;;;9.27;2.23;;;;;;;9.14;100.00;98923.44;5055956;28;20025;-35
2024/01/03 05:08:07;;;;;;;11.73;2.72;;;;;;;9.15;100.00;98925.03;5055247;28;20743;-35
2024/01/03 05:10:32;;;;;;;10.23;2.50;;;;;;;9.25;100.00;98943.94;5055629;28;20036;-35
2024/01/03 05:12:58;;;;;;;8.60;2.50;;;;;;;9.22;100.00;98921.03;5054960;28;20035;-36
2024/01/03 05:15:23;;;;;;;8.23;2.10;;;;;;;9.17;100.00;98920.97;5055045;28;20029;-35
2024/01/03 05:17:48;;;;;;;6.53;2.10;;;;;;;9.23;100.00;98930.72;5055949;28;20108;-35
2024/01/03 05:20:14;;;;;;;5.80;1.92;;;;;;;9.19;100.00;98918.03;5055814;28;20139;-35
2024/01/03 05:22:39;;;;;;;8.33;2.10;;;;;;;9.19;100.00;98928.81;5055869;28;20032;-35
2024/01/03 05:25:06;;;;;;;8.18;2.40;;;;;;;9.14;100.00;98936.91;5054992;28;20445;-35
2024/01/03 05:27:31;;;;;;;6.78;2.10;;;;;;;9.08;100.00;98943.34;5055764;28;20029;-35
2024/01/03 05:29:57;;;;;;;6.07;2.25;;;;;;;9.08;100.00;98946.06;5055136;28;20116;-35
2024/01/03 05:32:22;;;;;;;8.87;1.83;;;;;;;9.01;100.00;98933.66;5054877;28;20032;-36
2024/01/03 05:34:47;;;;;;;5.93;2.07;;;;;;;9.03;100.00;98944.19;5054695;28;20025;-35
2024/01/03 05:37:13;;;;;;;7.90;1.77;;;;;;;9.00;100.00;98942.00;5054791;28;20132;-36
2024/01/03 05:39:38;;;;;;;9.50;2.30;;;;;;;8.97;100.00;98940.63;5054267;28;20065;-35
2024/01/03 05:42:04;;;;;;;8.00;2.00;;;;;;;8.96;100.00;98933.63;5054661;28;20017;-35
2024/01/03 05:44:29;;;;;;;7.68;1.77;;;;;;;8.94;100.00;98946.59;5054580;28;20059;-36
2024/01/03 05:46:54;;;;;;;6.20;1.70;;;;;;;8.98;100.00;98934.19;5054921;28;20040;-35
2024/01/03 05:49:20;;;;;;;9.50;2.27;;;;;;;8.96;100.00;98936.34;5054558;28;20029;-35
2024/01/03 05:51:45;;;;;;;7.03;2.27;;;;;;;8.93;100.00;98942.28;5054214;28;20021;-35
2024/01/03 05:54:10;;;;;;;6.60;1.50;;;;;;;8.95;100.00;98947.41;5054402;28;20108;-35
2024/01/03 05:56:37;;;;;;;4.70;1.87;;;;;;;8.90;100.00;98942.78;5055409;28;20131;-35
2024/01/03 05:59:03;;;;;;;5.35;1.33;;;;;;;8.77;100.00;98924.44;5053116;28;20379;-35
2024/01/03 06:01:28;;;;;;;3.33;0.93;;;;;;;8.85;100.00;98944.69;5054578;28;20108;-35
2024/01/03 06:03:53;;;;;;;5.07;1.40;;;;;;;8.82;100.00;98940.59;5054855;28;20394;-36
2024/01/03 06:06:19;;;;;;;6.00;1.33;;;;;;;8.75;100.00;98940.88;5054297;28;20029;-35
2024/01/03 06:08:44;;;;;;;4.95;1.55;;;;;;;8.81;100.00;98941.69;5053848;28;20070;-35
2024/01/03 06:11:10;;;;;;;2.95;0.90;;;;;;;8.81;100.00;98943.56;5054410;28;20398;-35
2024/01/03 06:13:35;;;;;;;4.95;1.42;;;;;;;8.76;100.00;98947.88;5054090;28;20021;-36
2024/01/03 06:16:00;;;;;;;5.03;1.50;;;;;;;8.77;100.00;98949.50;5054472;28;20033;-35
2024/01/03 06:18:26;;;;;;;7.83;1.43;;;;;;;8.74;100.00;98957.31;5054317;28;20021;-35
2024/01/03 06:20:51;;;;;;;5.97;1.47;;;;;;;8.65;100.00;98958.91;5054051;28;20104;-35
2024/01/03 06:23:16;;;;;;;7.13;1.60;;;;;;;8.49;100.00;98933.75;5053931;28;20021;-35
2024/01/03 06:25:42;;;;;;;7.07;1.60;;;;;;;8.60;100.00;98966.97;5054186;28;20516;-35
2024/01/03 06:28:07;;;;;;;6.47;1.60;;;;;;;8.48;100.00;98951.00;5053564;28;20298;-35
2024/01/03 06:30:34;;;;;;;7.03;2.03;;;;;;;8.54;100.00;98959.91;5054306;28;20044;-35
2024/01/03 06:32:59;;;;;;;5.78;1.58;;;;;;;8.40;100.00;98949.63;5053390;28;20457;-35
2024/01/03 06:35:25;;;;;;;7.57;1.63;;;;;;;8.48;100.00;98959.09;5053699;28;20027;-36
2024/01/03 06:37:50;;;;;;;6.20;1.73;;;;;;;8.46;100.00;98967.44;5053732;28;20036;-36
2024/01/03 06:40:15;;;;;;;5.13;1.70;;;;;;;8.36;100.00;98956.63;5053359;28;20027;-36
2024/01/03 06:42:41;;;;;;;5.30;1.60;;;;;;;8.38;100.00;98964.44;5054306;28;20029;-36
2024/01/03 06:45:06;;;;;;;6.27;1.57;;;;;;;8.20;100.00;98953.00;5053577;28;20036;-36
2024/01/03 06:47:31;;;;;;;7.10;1.42;;;;;;;8.24;100.00;98959.47;5054120;28;20083;-36
2024/01/03 06:49:57;;;;;;;5.20;1.50;;;;;;;8.26;100.00;98960.03;5053647;28;20021;-36
2024/01/03 06:52:22;;;;;;;4.27;1.10;;;;;;;8.23;100.00;98971.31;5053531;28;20104;-36
2024/01/03 06:54:48;;;;;;;4.90;1.17;;;;;;;8.22;100.00;98980.47;5053363;28;20108;-36
2024/01/03 06:57:14;;;;;;;4.78;1.27;;;;;;;8.18;100.00;98981.25;5053116;28;20017;-36
2024/01/03 06:59:40;;;;;;;3.70;1.13;;;;;;;8.11;100.00;98972.63;5053421;28;20025;-36
2024/01/03 07:02:05;;;;;;;3.13;1.00;;;;;;;8.06;100.00;98976.09;5053377;28;20017;-36
2024/01/03 07:04:31;;;;;;;2.60;1.05;;;;;;;7.99;100.00;98970.91;5053613;28;20028;-36
2024/01/03 07:06:57;;;;;;;3.27;0.80;;;;;;;7.95;100.00;98961.75;5053677;28;20108;-36
2024/01/03 07:09:22;;;;;;;3.17;0.90;;;;;;;7.87;100.00;98959.53;5053113;28;20029;-36
2024/01/03 07:11:48;;;;;;;2.10;0.60;;;;;;;7.90;100.00;98974.34;5053700;28;20021;-36
2024/01/03 07:14:13;;;;;;;3.22;0.90;;;;;;;7.81;100.00;98978.59;5053077;28;20264;-36
2024/01/03 07:16:39;;;;;;;1.73;0.57;;;;;;;7.81;100.00;98990.19;5054101;28;20021;-36
2024/01/03 07:19:05;;;;;;;;;;;;;;;7.83;100.00;98992.59;5057512;28;20025;-36
2024/01/03 07:21:30;;;;;;;2.78;0.60;;;;;;;7.73;100.00;99004.91;5057647;28;20332;-36
2024/01/03 07:23:56;;;;;;;5.45;1.33;;;;;;;7.73;100.00;98998.72;5056953;28;20412;-35
2024/01/03 07:26:21;;;;;;;2.38;0.90;;;;;;;7.69;100.00;99000.31;5057835;28;20029;-36
2024/01/03 07:28:47;;;;;;;1.43;0.60;;;;;;;7.71;100.00;98990.91;5056888;28;20450;-36
2024/01/03 07:31:12;;;;;;;1.27;0.40;;;;;;;7.66;100.00;99000.81;5056888;28;20107;-36
2024/01/03 07:33:40;;;;;;;1.93;0.63;;;;;;;7.68;100.00;98996.00;5057342;28;20035;-36
2024/01/03 07:36:05;;;;;;;2.30;0.50;;;;;;;7.67;100.00;99005.13;5056953;28;20361;-36
2024/01/03 07:38:31;;;;;;;3.22;0.73;;;;;;;7.66;100.00;99008.88;5057279;28;20021;-36
2024/01/03 07:40:56;;;;;;;1.83;0.70;;;;;;;7.69;100.00;99011.88;5057877;28;20416;-36
2024/01/03 07:43:21;;;;;;;2.83;0.70;;;;;;;7.69;100.00;99014.56;5056729;28;20029;-36
2024/01/03 07:45:47;;;;;;;2.57;0.60;;;;;;;7.48;100.00;98989.38;5056635;28;20029;-36
2024/01/03 07:48:12;;;;;;;1.97;0.57;;;;;;;7.66;100.00;99014.25;5056870;28;20039;-36
2024/01/03 07:50:37;;;;;;;1.90;0.80;;;;;;;7.66;100.00;99020.47;5057396;28;20041;-36
2024/01/03 07:53:03;;;;;;;2.70;0.80;;;;;;;7.66;100.00;99025.84;5056759;28;20372;-36
2024/01/03 07:55:28;;;;;;;2.65;0.73;;;;;;;7.65;100.00;99034.16;5056748;28;20037;-36
2024/01/03 07:57:53;;;;;;;2.20;0.67;;;;;;;7.65;100.00;99031.47;5056961;28;20107;-36
2024/01/03 08:00:19;;;;;;;2.17;0.70;;;;;;;7.64;100.00;99027.97;5056653;28;20361;-36
2024/01/03 08:02:44;;;;;;;1.60;0.80;;;;;;;7.68;100.00;99036.34;5056621;28;20453;-36
2024/01/03 08:05:10;;;;;;;3.20;0.97;;;;;;;7.67;100.00;99030.16;5056564;28;20453;-36
2024/01/03 08:07:35;;;;;;;4.20;1.55;;;;;;;7.68;100.00;99033.66;5057337;28;20112;-36
2024/01/03 08:10:00;;;;;;;2.20;1.00;;;;;;;7.71;100.00;99042.03;5056445;28;20017;-36
2024/01/03 08:12:26;;;;;;;2.17;1.10;;;;;;;7.73;100.00;99039.06;5056994;28;20326;-36
2024/01/03 08:14:51;;;;;;;4.00;1.60;;;;;;;7.75;100.00;99034.25;5056598;28;20202;-36
2024/01/03 08:17:16;;;;;;;3.47;1.20;;;;;;;7.78;100.00;99047.19;5055875;28;20067;-36
2024/01/03 08:19:42;;;;;;;4.27;1.30;;;;;;;7.64;100.00;99006.44;5055985;28;20057;-36
2024/01/03 08:22:08;;;;;;;5.70;1.40;;;;;;;7.80;100.00;99036.97;5055943;28;20318;-36
2024/01/03 08:24:33;;;;;;;;;;;;;;;7.84;100.00;99034.59;5056596;28;20362;-36
2024/01/03 08:26:59;;;;;;;4.55;1.27;;;;;;;7.78;100.00;99016.78;5056384;28;19927;-36
2024/01/03 08:29:24;;;;;;;7.80;1.70;;;;;;;7.84;100.00;99032.72;5055602;28;20017;-36
2024/01/03 08:31:50;;;;;;;9.83;2.20;;;;;;;7.89;100.00;99038.13;5056854;28;20028;-36
2024/01/03 08:34:15;;;;;;;8.13;1.85;;;;;;;7.92;100.00;99042.19;5056245;28;20096;-36
2024/01/03 08:36:42;;;;;;;8.65;1.70;;;;;;;7.88;100.00;99035.69;5056703;28;20071;-36
2024/01/03 08:39:08;;;;;;;7.65;1.92;;;;;;;7.93;100.00;99036.53;5055888;28;20044;-36
2024/01/03 08:41:34;;;;;;;;;;;;;;;7.99;100.00;99038.19;5056235;28;20025;-36
2024/01/03 08:43:59;;;;;;;7.25;2.22;;;;;;;7.97;100.00;99039.53;5055709;28;19958;-36
2024/01/03 08:46:30;;;;;;;10.57;2.13;;;;;;;8.02;100.00;99050.34;5056016;28;20078;-36
2024/01/03 08:48:56;;;;;;;11.27;2.30;;;;;;;8.05;100.00;99049.00;5055993;28;20023;-36
2024/01/03 08:51:22;;;;;;;11.65;2.70;;;;;;;8.07;100.00;99049.56;5055950;28;20457;-36
2024/01/03 08:53:48;;;;;;;12.23;2.00;;;;;;;8.05;100.00;99046.31;5055296;28;20029;-36
2024/01/03 08:56:17;;;;;;;10.95;2.50;;;;;;;8.14;100.00;99060.91;5054878;28;20044;-36
2024/01/03 08:58:44;;;;;;;10.60;2.08;;;;;;;8.08;100.00;99045.81;5055219;28;20107;-36
2024/01/03 09:01:16;;;;;;;11.50;3.10;;;;;;;8.18;100.00;99057.47;5055823;28;20070;-36
2024/01/03 09:03:42;;;;;;;9.57;2.30;;;;;;;8.14;100.00;99047.47;5055387;28;20547;-36
2024/01/03 09:06:08;;;;;;;14.50;2.40;;;;;;;8.22;100.00;99058.56;5055464;28;20075;-36
2024/01/03 09:08:33;;;;;;;11.50;2.90;;;;;;;8.29;100.00;99063.72;5055076;28;20029;-36
2024/01/03 09:10:59;;;;;;;11.20;3.13;;;;;;;8.33;100.00;99069.41;5055070;28;20036;-36
2024/01/03 09:13:24;;;;;;;15.17;3.40;;;;;;;8.37;100.00;99067.84;5055256;28;20309;-36
2024/01/03 09:15:50;;;;;;;10.98;2.42;;;;;;;8.36;100.00;99061.66;5055441;28;20033;-36
2024/01/03 09:18:16;;;;;;;11.88;2.72;;;;;;;8.40;100.00;99068.16;5055655;28;20467;-36
2024/01/03 09:20:41;;;;;;;12.90;2.63;;;;;;;8.40;100.00;99064.66;5055447;28;20103;-36
2024/01/03 09:23:06;;;;;;;18.10;3.70;;;;;;;8.47;100.00;99076.81;5055617;28;20746;-36
2024/01/03 09:25:32;;;;;;;14.70;4.03;;;;;;;8.50;100.00;99089.75;5054985;28;20049;-36
2024/01/03 09:27:57;;;;;;;17.00;3.00;;;;;;;8.54;100.00;99078.44;5055000;28;20361;-36
2024/01/03 09:30:23;;;;;;;13.98;3.08;;;;;;;8.58;100.00;99079.56;5054909;28;20071;-36
2024/01/03 09:32:50;;;;;;;14.15;3.40;;;;;;;8.51;100.00;99069.81;5055161;28;20111;-36
2024/01/03 09:35:15;;;;;;;17.02;3.50;;;;;;;8.64;100.00;99092.81;5054745;28;20033;-36
2024/01/03 09:37:40;;;;;;;20.17;4.53;;;;;;;8.69;100.00;99081.25;5054914;28;20032;-36
2024/01/03 09:40:06;;;;;;;10.73;3.53;;;;;;;8.68;100.00;99074.22;5053877;28;20031;-36
2024/01/03 09:42:33;;;;;;;22.58;4.35;;;;;;;8.83;100.00;99101.25;5054727;28;20417;-36
2024/01/03 09:44:59;;;;;;;11.68;2.97;;;;;;;8.91;100.00;99084.59;5054912;28;20434;-36
2024/01/03 09:47:25;;;;;;;20.42;4.13;;;;;;;8.86;100.00;99065.69;5054922;28;20025;-36
2024/01/03 09:49:50;;;;;;;13.73;3.17;;;;;;;9.06;100.00;99086.53;5054549;28;20017;-36
2024/01/03 09:52:16;;;;;;;20.23;3.50;;;;;;;9.09;100.00;99088.72;5054191;28;20809;-36
2024/01/03 09:54:42;;;;;;;12.10;2.88;;;;;;;9.02;100.00;99078.16;5054631;28;20024;-36
2024/01/03 09:57:09;;;;;;;15.57;3.37;;;;;;;9.11;100.00;99085.75;5054339;28;20362;-36
2024/01/03 09:59:35;;;;;;;17.08;3.67;;;;;;;9.12;100.00;99093.56;5054626;28;20036;-36
2024/01/03 10:02:01;;;;;;;;;;;;;;;9.13;100.00;99100.59;5055586;28;20357;-36
2024/01/03 10:04:27;;;;;;;15.20;3.77;;;;;;;9.10;100.00;99097.59;5055074;28;19912;-36
2024/01/03 10:06:55;;;;;;;16.40;4.18;;;;;;;9.12;100.00;99092.75;5054795;28;20263;-36
2024/01/03 10:09:21;;;;;;;13.00;3.45;;;;;;;9.15;100.00;99098.44;5054658;28;20158;-36
2024/01/03 10:11:51;;;;;;;13.88;3.60;;;;;;;9.16;100.00;99097.34;5054116;28;20479;-36
2024/01/03 10:14:22;;;;;;;16.73;4.40;;;;;;;9.25;100.00;99103.06;5054084;28;20021;-36
2024/01/03 10:16:48;;;;;;;18.35;4.68;;;;;;;9.29;100.00;99131.13;5053996;28;20021;-36
2024/01/03 10:19:18;;;;;;;16.58;4.35;;;;;;;9.32;100.00;99110.88;5054888;28;20075;-36
2024/01/03 10:21:49;;;;;;;14.85;4.03;;;;;;;9.24;100.00;99102.25;5053998;28;20461;-36
2024/01/03 10:24:16;;;;;;;16.35;3.55;;;;;;;9.33;100.00;99116.03;5053570;28;20025;-36
2024/01/03 10:26:41;;;;;;;14.35;3.63;;;;;;;9.33;100.00;99120.63;5053888;28;20029;-36
2024/01/03 10:29:14;;;;;;;12.87;3.77;;;;;;;9.33;100.00;99105.25;5053801;28;20047;-36
2024/01/03 10:31:40;;;;;;;16.40;4.82;;;;;;;9.35;100.00;99115.78;5053802;28;20369;-36
2024/01/03 10:34:12;;;;;;;20.23;4.63;;;;;;;9.35;100.00;99111.19;5053474;28;20108;-36
2024/01/03 10:36:39;;;;;;;16.98;4.40;;;;;;;9.30;100.00;99111.16;5053962;28;20496;-36
2024/01/03 10:39:05;;;;;;;12.73;3.55;;;;;;;9.37;100.00;99117.13;5053369;28;20142;-36
2024/01/03 10:41:31;;;;;;;19.73;5.88;;;;;;;9.38;100.00;99134.13;5053743;28;20025;-36
2024/01/03 10:44:02;;;;;;;;;;;;;;;9.41;100.00;99122.78;5053753;28;20457;-36
2024/01/03 10:46:28;;;;;;;12.75;3.50;;;;;;;9.42;100.00;99124.41;5053662;28;19911;-36
2024/01/03 10:48:54;;;;;;;13.65;3.95;;;;;;;9.43;100.00;99124.16;5053539;28;20013;-36
2024/01/03 10:51:23;;;;;;;18.52;4.75;;;;;;;9.48;100.00;99139.56;5053459;28;20346;-36
2024/01/03 10:53:50;;;;;;;18.17;4.10;;;;;;;9.51;100.00;99137.13;5053462;28;20048;-36
2024/01/03 10:56:16;;;;;;;15.73;3.75;;;;;;;9.55;100.00;99137.41;5053719;28;20045;-36
2024/01/03 10:58:41;;;;;;;16.95;3.88;;;;;;;9.53;100.00;99110.69;5053479;28;20082;-36
2024/01/03 11:01:11;;;;;;;15.33;4.27;;;;;;;9.58;100.00;99112.59;5053564;28;20032;-36
2024/01/03 11:04:07;;;;;;;13.35;3.90;;;;;;;9.66;100.00;99124.75;5053413;28;20025;-36
2024/01/03 11:06:52;;;;;;;17.17;4.72;;;;;;;9.67;100.00;99118.28;5053965;28;20431;-36
2024/01/03 11:09:19;;;;;;;21.63;5.20;;;;;;;9.67;100.00;99102.09;5053111;28;20017;-36
2024/01/03 11:11:44;;;;;;;15.02;3.83;;;;;;;9.72;100.00;99127.22;5053348;28;20021;-36
2024/01/03 11:14:19;;;;;;;18.10;4.18;;;;;;;9.69;100.00;99108.84;5053283;28;20025;-36
2024/01/03 11:16:45;;;;;;;14.93;4.45;;;;;;;9.76;100.00;99111.28;5053492;28;20032;-36
2024/01/03 11:19:11;;;;;;;17.30;4.35;;;;;;;9.75;100.00;99115.84;5053046;28;20024;-36
2024/01/03 11:21:43;;;;;;;17.58;4.38;;;;;;;9.72;100.00;99118.31;5053837;28;20021;-36
2024/01/03 11:24:12;;;;;;;16.00;4.65;;;;;;;9.63;100.00;99114.50;5054107;28;20021;-36